Overview Statistics Trail Chart Weather Telemetry Raw packets
 

This is the latest recevied weather packets stored in our database for station/object MeshWX-1. If no packets are shown the sender has not sent any weather packets the latest 10 day(s).

<< 35 36 37 38 39 40 41 >>
Time Temp. Humidity Pressure Rain* Wind** Luminosity Snow
1787818473 33.33° C 38% 1001.2 hPa - - - -
1787818461 33.33° C 38% 1001.2 hPa - - - -
1787818392 33.89° C 39% 1001 hPa - - - -
1787816013 33.33° C 41% 1000.8 hPa - - - -
1787813493 30.56° C 47% 1000.5 hPa - - - -
1787810973 27.78° C 56% 1000.5 hPa - - - -
1787808013 24.44° C 65% 1000.6 hPa - - - -
1787807424 24.44° C 65% 1000.6 hPa - - - -
1787806982 24.44° C 65% 1000.6 hPa - - - -
1787806821 24.44° C 65% 1000.6 hPa - - - -
1787806093 21.67° C 72% 1000.4 hPa - - - -
1787805504 21.67° C 72% 1000.4 hPa - - - -
1787804910 21.67° C 72% 1000.4 hPa - - - -
1787804173 20.56° C 74% 1000.2 hPa - - - -
1787803584 20.56° C 74% 1000.2 hPa - - - -
1787803200 20.56° C 74% 1000.2 hPa - - - -
1787802984 20.56° C 74% 1000.2 hPa - - - -
1787802193 21.11° C 71% 1000 hPa - - - -
1787801664 21.11° C 71% 1000 hPa - - - -
1787801093 21.11° C 71% 1000 hPa - - - -
1787800273 20.56° C 72% 999.8 hPa - - - -
1787799804 20.56° C 72% 999.8 hPa - - - -
1787799453 20.56° C 72% 999.8 hPa - - - -
1787799257 20.56° C 72% 999.8 hPa - - - -
1787798352 20.56° C 72% 999.6 hPa - - - -

* Rain since midnight (hover to see other rain measurements)
** Current wind speed in m/s (hover to see current wind gust speed)